Time;durP1;ratioP1;P1;durP2;ratioP2;P2;SDS_P1;SDS_P2;PMS_P1;PMS_P2;Temp;Humidity;BMP_temperature;BMP_pressure;BME280_temperature;BME280_humidity;BME280_pressure;Samples;Min_cycle;Max_cycle;Signal;HPM_P1;HPM_P2
2023/02/24 00:01:01;;;;;;;16.52;7.60;;;;;;;;;;5110313;27;20031;-69
2023/02/24 00:03:27;;;;;;;6.35;5.75;;;;;;;;;;5128083;27;20031;-70
2023/02/24 00:05:53;;;;;;;15.48;7.88;;;;;;;;;;5128267;27;20064;-69
2023/02/24 00:08:19;;;;;;;16.02;9.35;;;;;;;;;;5127602;27;20050;-70
2023/02/24 00:10:46;;;;;;;12.27;8.25;;;;;;;;;;5109887;27;20031;-70
2023/02/24 00:13:12;;;;;;;14.00;9.50;;;;;;;;;;5127760;27;20126;-69
2023/02/24 00:15:38;;;;;;;12.82;7.60;;;;;;;;;;5109636;27;20041;-69
2023/02/24 00:18:05;;;;;;;7.70;5.70;;;;;;;;;;5127965;27;20023;-70
2023/02/24 00:20:32;;;;;;;9.43;6.75;;;;;;;;;;5109655;27;20039;-70
2023/02/24 00:22:59;;;;;;;16.98;10.30;;;;;;;;;;5127768;27;20502;-70
2023/02/24 00:25:25;;;;;;;12.57;7.53;;;;;;;;;;5127746;27;20035;-70
2023/02/24 00:27:52;;;;;;;6.68;5.35;;;;;;;;;;5124538;27;20050;-70
2023/02/24 00:30:20;;;;;;;8.75;7.45;;;;;;;;;;5109321;27;20042;-70
2023/02/24 00:32:46;;;;;;;3.50;3.22;;;;;;;;;;5127738;27;20531;-70
2023/02/24 00:35:13;;;;;;;10.02;7.10;;;;;;;;;;5127363;27;20027;-69
2023/02/24 00:37:39;;;;;;;15.63;7.45;;;;;;;;;;5127491;28;20034;-70
2023/02/24 00:40:10;;;;;;;23.42;11.80;;;;;;;;;;5108437;28;20035;-70
2023/02/24 00:42:37;;;;;;;10.93;7.37;;;;;;;;;;5127682;28;20513;-70
2023/02/24 00:45:08;;;;;;;20.60;8.10;;;;;;;;;;5109014;28;20038;-69
2023/02/24 00:47:38;;;;;;;13.60;8.80;;;;;;;;;;5109338;28;20050;-69
2023/02/24 00:50:05;;;;;;;7.93;5.70;;;;;;;;;;5127323;28;20525;-70
2023/02/24 00:52:31;;;;;;;7.35;5.57;;;;;;;;;;5127236;28;20035;-70
2023/02/24 00:54:57;;;;;;;13.70;7.47;;;;;;;;;;5127260;28;20394;-71
2023/02/24 00:57:29;;;;;;;6.68;5.95;;;;;;;;;;5127353;28;21428;-70
2023/02/24 00:59:57;;;;;;;5.35;4.78;;;;;;;;;;5127291;28;20109;-69
2023/02/24 01:02:24;;;;;;;7.13;6.43;;;;;;;;;;5124423;28;20594;-69
2023/02/24 01:04:50;;;;;;;10.48;6.68;;;;;;;;;;5108638;28;20046;-70
2023/02/24 01:07:16;;;;;;;12.07;6.80;;;;;;;;;;5127200;28;20043;-70
2023/02/24 01:09:43;;;;;;;12.93;8.23;;;;;;;;;;5090079;28;20042;-70
2023/02/24 01:14:47;;;;;;;12.15;6.57;;;;;;;;;;5127264;28;20039;-70
2023/02/24 01:17:13;;;;;;;13.88;8.27;;;;;;;;;;5126958;28;20054;-70
2023/02/24 01:19:43;;;;;;;12.63;7.15;;;;;;;;;;5108325;28;20031;-70
2023/02/24 01:22:11;;;;;;;14.32;7.65;;;;;;;;;;5126907;28;20510;-69
2023/02/24 01:24:40;;;;;;;7.80;6.28;;;;;;;;;;5109074;28;20039;-70
2023/02/24 01:27:06;;;;;;;12.60;8.02;;;;;;;;;;5127106;28;20054;-70
2023/02/24 01:29:38;;;;;;;5.90;4.68;;;;;;;;;;5089350;28;20165;-70
2023/02/24 01:32:05;;;;;;;11.18;7.20;;;;;;;;;;5108418;28;20048;-69
2023/02/24 01:34:31;;;;;;;10.68;6.68;;;;;;;;;;5126943;28;20698;-69
2023/02/24 01:36:57;;;;;;;14.13;8.60;;;;;;;;;;5108696;28;20074;-70
2023/02/24 01:39:24;;;;;;;12.30;6.22;;;;;;;;;;5108365;28;20099;-70
2023/02/24 01:41:51;;;;;;;12.05;7.10;;;;;;;;;;5126872;28;20027;-70
2023/02/24 01:44:21;;;;;;;9.48;6.97;;;;;;;;;;5108548;28;20039;-70
2023/02/24 01:46:48;;;;;;;8.85;6.40;;;;;;;;;;5090429;28;20131;-70
2023/02/24 01:49:21;;;;;;;6.57;4.85;;;;;;;;;;5126563;28;20047;-69
2023/02/24 01:51:54;;;;;;;8.35;4.93;;;;;;;;;;5108824;28;20023;-70
2023/02/24 01:54:22;;;;;;;13.75;8.65;;;;;;;;;;5130326;27;20050;-69
2023/02/24 01:56:50;;;;;;;10.75;6.15;;;;;;;;;;5130420;27;20140;-69
2023/02/24 01:59:17;;;;;;;5.32;4.63;;;;;;;;;;5110843;27;20039;-69
2023/02/24 02:01:44;;;;;;;8.85;6.70;;;;;;;;;;5129007;27;20042;-69
2023/02/24 02:04:15;;;;;;;5.95;5.22;;;;;;;;;;5130033;27;20514;-69
2023/02/24 02:06:41;;;;;;;9.35;6.93;;;;;;;;;;5112382;27;20499;-69
2023/02/24 02:09:08;;;;;;;11.57;6.88;;;;;;;;;;5129965;27;20023;-69
2023/02/24 02:11:34;;;;;;;15.65;9.43;;;;;;;;;;5112372;27;20027;-69
2023/02/24 02:14:01;;;;;;;7.55;6.60;;;;;;;;;;5130117;27;20037;-69
2023/02/24 02:16:42;;;;;;;7.78;5.85;;;;;;;;;;5130139;27;20038;-69
2023/02/24 02:19:11;;;;;;;7.90;4.38;;;;;;;;;;5094608;27;20053;-69
2023/02/24 02:21:44;;;;;;;7.68;6.18;;;;;;;;;;5130195;27;20031;-70
2023/02/24 02:24:16;;;;;;;10.43;7.40;;;;;;;;;;5111483;27;20039;-70
2023/02/24 02:26:56;;;;;;;7.53;6.78;;;;;;;;;;5125516;27;20515;-69
2023/02/24 02:29:26;;;;;;;9.80;6.03;;;;;;;;;;5129916;27;20633;-70
2023/02/24 02:32:11;;;;;;;9.40;6.75;;;;;;;;;;5129618;27;20043;-71
2023/02/24 02:34:37;;;;;;;9.60;6.53;;;;;;;;;;5129943;27;20653;-70
2023/02/24 02:37:08;;;;;;;10.18;6.32;;;;;;;;;;5129866;27;20026;-69
2023/02/24 02:39:51;;;;;;;10.82;6.90;;;;;;;;;;5094633;27;20031;-69
2023/02/24 02:42:24;;;;;;;5.25;4.75;;;;;;;;;;5129827;27;20063;-70
2023/02/24 02:45:26;;;;;;;7.72;6.18;;;;;;;;;;5111192;27;20031;-69
2023/02/24 02:48:32;;;;;;;9.07;7.63;;;;;;;;;;5009281;28;20099;-70
2023/02/24 02:51:10;;;;;;;8.73;7.13;;;;;;;;;;5065788;28;20020;-70
2023/02/24 02:53:39;;;;;;;11.38;5.93;;;;;;;;;;5049367;28;20051;-69
2023/02/24 02:56:10;;;;;;;9.70;6.45;;;;;;;;;;5098971;27;20035;-71
2023/02/24 02:58:37;;;;;;;9.20;6.70;;;;;;;;;;5129459;27;20042;-70
2023/02/24 03:01:03;;;;;;;6.50;5.85;;;;;;;;;;5111224;27;20124;-70
2023/02/24 03:03:33;;;;;;;9.15;6.10;;;;;;;;;;5128987;27;20537;-71
2023/02/24 03:06:02;;;;;;;7.50;6.18;;;;;;;;;;5111312;27;20027;-70
2023/02/24 03:08:28;;;;;;;11.48;7.57;;;;;;;;;;5090301;28;20031;-71
2023/02/24 03:10:59;;;;;;;12.50;6.38;;;;;;;;;;5126094;27;20031;-70
2023/02/24 03:13:26;;;;;;;7.78;5.75;;;;;;;;;;5129057;27;20038;-70
2023/02/24 03:15:53;;;;;;;9.32;7.50;;;;;;;;;;5110562;27;20122;-70
2023/02/24 03:18:27;;;;;;;4.32;4.00;;;;;;;;;;5110224;27;20498;-70
2023/02/24 03:21:08;;;;;;;3.17;2.88;;;;;;;;;;5109707;27;20121;-70
2023/02/24 03:23:39;;;;;;;5.55;4.93;;;;;;;;;;5110348;27;20118;-70
2023/02/24 03:26:08;;;;;;;10.20;7.25;;;;;;;;;;5128629;27;20442;-71
2023/02/24 03:28:36;;;;;;;6.78;6.15;;;;;;;;;;5076712;27;20053;-70
2023/02/24 03:31:09;;;;;;;6.10;5.43;;;;;;;;;;5109908;27;20511;-70
2023/02/24 03:33:39;;;;;;;7.10;6.18;;;;;;;;;;5125700;27;20039;-71
2023/02/24 03:36:05;;;;;;;9.05;6.15;;;;;;;;;;5109678;27;20034;-70
2023/02/24 03:38:32;;;;;;;6.22;5.47;;;;;;;;;;5109014;27;20079;-70
2023/02/24 03:40:58;;;;;;;10.65;6.22;;;;;;;;;;5109740;27;20019;-71
2023/02/24 03:43:31;;;;;;;10.65;7.25;;;;;;;;;;5109197;27;20043;-70
2023/02/24 03:46:00;;;;;;;12.60;8.38;;;;;;;;;;5110089;27;20663;-70
2023/02/24 03:48:26;;;;;;;11.38;5.88;;;;;;;;;;5109378;27;20050;-70
2023/02/24 03:50:53;;;;;;;9.23;5.63;;;;;;;;;;5091098;27;20027;-71
2023/02/24 03:53:55;;;;;;;5.50;4.43;;;;;;;;;;5092146;27;20955;-70
2023/02/24 03:56:31;;;;;;;8.13;6.63;;;;;;;;;;5088598;27;20038;-70
2023/02/24 03:59:11;;;;;;;6.13;5.60;;;;;;;;;;5106216;27;20038;-70
2023/02/24 04:01:45;;;;;;;4.40;4.07;;;;;;;;;;5106382;27;20031;-70
2023/02/24 04:04:27;;;;;;;7.38;6.38;;;;;;;;;;5073068;27;20027;-70
2023/02/24 04:07:16;;;;;;;5.93;4.80;;;;;;;;;;5108908;27;20415;-71
2023/02/24 04:09:56;;;;;;;12.98;7.38;;;;;;;;;;5109807;27;20027;-70
2023/02/24 04:12:26;;;;;;;12.05;8.35;;;;;;;;;;5092392;27;20080;-70
2023/02/24 04:14:59;;;;;;;9.60;6.40;;;;;;;;;;5092677;27;20065;-70
2023/02/24 04:17:28;;;;;;;6.78;5.13;;;;;;;;;;5109512;27;20517;-71
2023/02/24 04:19:56;;;;;;;6.57;5.45;;;;;;;;;;5075289;27;20021;-70
2023/02/24 04:22:23;;;;;;;6.70;5.95;;;;;;;;;;5108872;27;20042;-69
2023/02/24 04:24:50;;;;;;;9.90;6.13;;;;;;;;;;5109529;27;20122;-70
2023/02/24 04:27:16;;;;;;;8.77;6.18;;;;;;;;;;5127655;27;20551;-69
2023/02/24 04:29:48;;;;;;;13.07;9.40;;;;;;;;;;5108043;28;20031;-70
2023/02/24 04:32:16;;;;;;;7.50;6.75;;;;;;;;;;5082857;28;20056;-70
2023/02/24 04:34:44;;;;;;;11.25;6.20;;;;;;;;;;5104060;28;20372;-69
2023/02/24 04:37:10;;;;;;;7.13;5.50;;;;;;;;;;5105204;28;20035;-70
2023/02/24 04:39:37;;;;;;;11.60;6.68;;;;;;;;;;5106071;28;20110;-69
2023/02/24 04:42:08;;;;;;;8.30;6.78;;;;;;;;;;5104284;28;20036;-70
2023/02/24 04:44:34;;;;;;;7.95;6.65;;;;;;;;;;5100239;28;20491;-70
2023/02/24 04:47:00;;;;;;;5.20;4.78;;;;;;;;;;5104756;28;20090;-71
2023/02/24 04:49:26;;;;;;;7.22;5.75;;;;;;;;;;5102666;28;20032;-71
2023/02/24 04:51:52;;;;;;;8.40;7.57;;;;;;;;;;5095009;28;20032;-69
2023/02/24 04:54:19;;;;;;;8.00;5.93;;;;;;;;;;5097528;28;20035;-68
2023/02/24 04:56:46;;;;;;;12.77;8.63;;;;;;;;;;5104973;28;20023;-69
2023/02/24 04:59:13;;;;;;;5.72;4.20;;;;;;;;;;5102425;28;20038;-69
2023/02/24 05:01:41;;;;;;;8.98;7.03;;;;;;;;;;5104255;28;20085;-69
2023/02/24 05:04:07;;;;;;;8.07;6.38;;;;;;;;;;5104351;28;20043;-69
2023/02/24 05:06:33;;;;;;;6.03;5.47;;;;;;;;;;5106328;28;20024;-68
2023/02/24 05:09:00;;;;;;;8.93;6.45;;;;;;;;;;5104703;28;20024;-69
2023/02/24 05:11:31;;;;;;;6.03;4.97;;;;;;;;;;5102299;28;20028;-69
2023/02/24 05:13:57;;;;;;;6.88;5.35;;;;;;;;;;5095025;28;20081;-68
2023/02/24 05:16:23;;;;;;;5.10;4.35;;;;;;;;;;5094934;28;20412;-68
2023/02/24 05:18:49;;;;;;;5.45;4.95;;;;;;;;;;5099260;28;20092;-67
2023/02/24 05:24:06;;;;;;;9.38;6.80;;;;;;;;;;5106723;28;20460;-68
2023/02/24 05:26:34;;;;;;;7.38;6.55;;;;;;;;;;5102920;28;20103;-68
2023/02/24 05:29:00;;;;;;;6.13;5.53;;;;;;;;;;5108062;28;20067;-69
2023/02/24 05:31:27;;;;;;;13.00;7.85;;;;;;;;;;5119933;27;20098;-69
2023/02/24 05:33:57;;;;;;;8.70;7.57;;;;;;;;;;5130690;27;20035;-68
2023/02/24 05:36:23;;;;;;;12.50;8.77;;;;;;;;;;5123687;27;20058;-69
2023/02/24 05:38:54;;;;;;;8.25;6.60;;;;;;;;;;5126581;27;20433;-69
2023/02/24 05:41:21;;;;;;;12.68;6.25;;;;;;;;;;5113877;27;20065;-69
2023/02/24 05:43:51;;;;;;;5.30;4.63;;;;;;;;;;5125635;27;20113;-70
2023/02/24 05:46:18;;;;;;;15.60;9.93;;;;;;;;;;5123234;27;20039;-69
2023/02/24 05:48:45;;;;;;;7.03;6.38;;;;;;;;;;5125961;27;20043;-69
2023/02/24 05:51:12;;;;;;;11.02;6.80;;;;;;;;;;5109402;27;20124;-69
2023/02/24 05:53:41;;;;;;;7.90;7.05;;;;;;;;;;5129539;27;20630;-69
2023/02/24 05:56:07;;;;;;;12.95;10.02;;;;;;;;;;5115983;27;20100;-69
2023/02/24 05:58:33;;;;;;;8.40;7.35;;;;;;;;;;5115647;27;20031;-69
2023/02/24 06:01:05;;;;;;;10.00;7.63;;;;;;;;;;5111730;28;20058;-69
2023/02/24 06:03:34;;;;;;;9.32;7.10;;;;;;;;;;5111747;27;20072;-69
2023/02/24 06:06:07;;;;;;;12.02;8.13;;;;;;;;;;5132256;27;20076;-69
2023/02/24 06:08:41;;;;;;;8.88;7.47;;;;;;;;;;5114042;27;20101;-69
2023/02/24 06:11:07;;;;;;;8.05;7.25;;;;;;;;;;5118152;27;20024;-69
2023/02/24 06:13:33;;;;;;;7.85;6.28;;;;;;;;;;5119015;27;20054;-69
2023/02/24 06:15:59;;;;;;;10.27;8.43;;;;;;;;;;5099938;28;20396;-69
2023/02/24 06:18:25;;;;;;;11.38;8.85;;;;;;;;;;5112045;28;20036;-69
2023/02/24 06:20:52;;;;;;;16.33;10.52;;;;;;;;;;5125395;27;20034;-69
2023/02/24 06:23:19;;;;;;;11.15;8.40;;;;;;;;;;5110271;28;20055;-69
2023/02/24 06:25:45;;;;;;;9.15;6.72;;;;;;;;;;5111371;28;20067;-69
2023/02/24 06:28:11;;;;;;;6.47;5.82;;;;;;;;;;5111133;28;20075;-69
2023/02/24 06:30:37;;;;;;;10.43;8.43;;;;;;;;;;5111113;28;20027;-69
2023/02/24 06:33:04;;;;;;;7.47;6.72;;;;;;;;;;5117487;27;20038;-68
2023/02/24 06:35:33;;;;;;;16.48;9.32;;;;;;;;;;5117069;27;20118;-68
2023/02/24 06:37:59;;;;;;;8.32;6.63;;;;;;;;;;5092543;28;20131;-69
2023/02/24 06:40:25;;;;;;;7.97;7.05;;;;;;;;;;5110876;27;20114;-69
2023/02/24 06:42:52;;;;;;;8.18;5.60;;;;;;;;;;5120293;27;20130;-69
2023/02/24 06:45:18;;;;;;;6.93;6.30;;;;;;;;;;5096217;28;20036;-69
2023/02/24 06:47:48;;;;;;;7.60;6.82;;;;;;;;;;5098712;28;20130;-68
2023/02/24 06:50:14;;;;;;;8.57;7.47;;;;;;;;;;5113656;27;20035;-69
2023/02/24 06:52:42;;;;;;;11.35;8.18;;;;;;;;;;5121359;27;20035;-69
2023/02/24 06:55:23;;;;;;;15.77;10.75;;;;;;;;;;5128112;27;20039;-68
2023/02/24 06:57:56;;;;;;;10.27;9.23;;;;;;;;;;5099150;27;20471;-69
2023/02/24 07:00:26;;;;;;;13.02;9.30;;;;;;;;;;5121631;27;20038;-69
2023/02/24 07:02:52;;;;;;;10.30;7.18;;;;;;;;;;5114132;27;20387;-70
2023/02/24 07:05:18;;;;;;;9.18;5.65;;;;;;;;;;5131128;27;20031;-69
2023/02/24 07:07:44;;;;;;;11.52;8.68;;;;;;;;;;5113886;27;20047;-69
2023/02/24 07:10:12;;;;;;;8.85;6.90;;;;;;;;;;5102362;27;20027;-69
2023/02/24 07:12:40;;;;;;;9.30;7.25;;;;;;;;;;5099337;27;20028;-69
2023/02/24 07:15:07;;;;;;;13.10;6.95;;;;;;;;;;5131001;27;20307;-69
2023/02/24 07:17:32;;;;;;;11.63;8.35;;;;;;;;;;5108255;28;20024;-69
2023/02/24 07:20:09;;;;;;;7.00;6.25;;;;;;;;;;5112699;27;20035;-69
2023/02/24 07:22:36;;;;;;;12.85;8.13;;;;;;;;;;5117341;27;20035;-69
2023/02/24 07:25:03;;;;;;;13.48;8.77;;;;;;;;;;5104029;28;20038;-69
2023/02/24 07:27:29;;;;;;;12.60;9.73;;;;;;;;;;5124277;27;20126;-69
2023/02/24 07:29:55;;;;;;;17.05;9.05;;;;;;;;;;5124840;27;20581;-69
2023/02/24 07:32:21;;;;;;;12.00;8.35;;;;;;;;;;5109888;27;20168;-69
2023/02/24 07:34:48;;;;;;;11.82;6.43;;;;;;;;;;5110553;27;20023;-69
2023/02/24 07:37:14;;;;;;;11.30;8.40;;;;;;;;;;5128325;27;20039;-69
2023/02/24 07:39:41;;;;;;;13.90;9.38;;;;;;;;;;5110709;27;20038;-69
2023/02/24 07:42:08;;;;;;;8.18;6.07;;;;;;;;;;5112475;27;20972;-69
2023/02/24 07:44:43;;;;;;;15.65;10.13;;;;;;;;;;5099939;27;20615;-69
2023/02/24 07:47:09;;;;;;;16.42;10.65;;;;;;;;;;5128359;27;20121;-69
2023/02/24 07:49:35;;;;;;;8.68;6.78;;;;;;;;;;5122301;27;20259;-69
2023/02/24 07:52:01;;;;;;;21.40;11.57;;;;;;;;;;5111786;28;20036;-69
2023/02/24 07:54:28;;;;;;;11.32;8.27;;;;;;;;;;5090466;27;20656;-69
2023/02/24 07:56:57;;;;;;;14.35;9.05;;;;;;;;;;5124350;27;20034;-70
2023/02/24 07:59:24;;;;;;;13.05;7.95;;;;;;;;;;5105935;28;20039;-69
2023/02/24 08:01:50;;;;;;;14.60;10.23;;;;;;;;;;5118757;27;20157;-69
2023/02/24 08:04:17;;;;;;;12.48;8.70;;;;;;;;;;5122845;27;20042;-69
2023/02/24 08:06:43;;;;;;;14.40;9.68;;;;;;;;;;5096477;27;20028;-69
2023/02/24 08:09:16;;;;;;;14.20;7.82;;;;;;;;;;5124949;27;20031;-69
2023/02/24 08:11:44;;;;;;;18.80;12.05;;;;;;;;;;5114028;27;20031;-69
2023/02/24 08:14:13;;;;;;;11.40;10.05;;;;;;;;;;5107370;27;20510;-70
2023/02/24 08:16:42;;;;;;;21.10;13.98;;;;;;;;;;5104700;28;20063;-71
2023/02/24 08:19:12;;;;;;;22.95;14.90;;;;;;;;;;5089044;27;20130;-71
2023/02/24 08:21:46;;;;;;;19.23;11.98;;;;;;;;;;5114514;27;20058;-71
2023/02/24 08:24:16;;;;;;;11.40;9.10;;;;;;;;;;5106821;28;20035;-70
2023/02/24 08:26:43;;;;;;;9.43;6.32;;;;;;;;;;5086356;27;20130;-69
2023/02/24 08:29:10;;;;;;;18.05;12.13;;;;;;;;;;5107619;28;20039;-70
2023/02/24 08:31:35;;;;;;;14.07;9.35;;;;;;;;;;5108061;28;20048;-70
2023/02/24 08:34:01;;;;;;;15.68;10.55;;;;;;;;;;5118192;27;20042;-70
2023/02/24 08:36:27;;;;;;;18.23;12.25;;;;;;;;;;5114412;27;20040;-70
2023/02/24 08:38:58;;;;;;;9.73;7.10;;;;;;;;;;5117577;27;20039;-69
2023/02/24 08:41:43;;;;;;;18.17;11.57;;;;;;;;;;5111846;28;20069;-69
2023/02/24 08:44:10;;;;;;;20.40;10.05;;;;;;;;;;5113112;28;20031;-70
2023/02/24 08:46:38;;;;;;;20.83;11.07;;;;;;;;;;5118509;28;20031;-71
2023/02/24 08:49:09;;;;;;;11.60;6.88;;;;;;;;;;5119433;28;20035;-69
2023/02/24 08:51:42;;;;;;;17.90;11.30;;;;;;;;;;5107205;28;20119;-70
2023/02/24 08:54:09;;;;;;;23.35;15.15;;;;;;;;;;5127454;28;20135;-70
2023/02/24 08:56:36;;;;;;;14.00;7.97;;;;;;;;;;5106767;28;20510;-69
2023/02/24 08:59:04;;;;;;;26.40;15.43;;;;;;;;;;5107653;28;20031;-71
2023/02/24 09:01:34;;;;;;;17.55;9.32;;;;;;;;;;5116183;27;20027;-69
2023/02/24 09:04:10;;;;;;;18.88;13.20;;;;;;;;;;5098612;28;20059;-69
2023/02/24 09:06:44;;;;;;;16.05;11.57;;;;;;;;;;5104878;27;20039;-70
2023/02/24 09:09:17;;;;;;;26.35;16.30;;;;;;;;;;5117676;27;20027;-70
2023/02/24 09:11:56;;;;;;;28.08;11.40;;;;;;;;;;5125438;27;20034;-69
2023/02/24 09:14:28;;;;;;;16.90;10.73;;;;;;;;;;5128802;27;20117;-69
2023/02/24 09:17:01;;;;;;;25.33;15.88;;;;;;;;;;5110612;27;20054;-70
2023/02/24 09:22:31;;;;;;;12.65;7.80;;;;;;;;;;5098880;27;20429;-71
2023/02/24 09:27:53;;;;;;;23.83;14.32;;;;;;;;;;5122451;27;20613;-70
2023/02/24 09:30:35;;;;;;;14.23;10.35;;;;;;;;;;5110887;27;20084;-71
2023/02/24 09:33:16;;;;;;;21.13;7.88;;;;;;;;;;5107735;27;20118;-70
2023/02/24 09:35:45;;;;;;;20.87;12.30;;;;;;;;;;5102286;27;20118;-71
2023/02/24 09:38:15;;;;;;;20.05;13.55;;;;;;;;;;5126079;27;20072;-71
2023/02/24 09:40:47;;;;;;;14.45;9.38;;;;;;;;;;5130324;27;20035;-72
2023/02/24 09:43:26;;;;;;;16.15;10.93;;;;;;;;;;5105589;27;20422;-71
2023/02/24 09:45:57;;;;;;;35.30;15.38;;;;;;;;;;5105019;27;20023;-71
2023/02/24 09:48:28;;;;;;;13.00;11.13;;;;;;;;;;5116814;27;20072;-72
2023/02/24 09:51:03;;;;;;;23.23;12.65;;;;;;;;;;5092298;28;20470;-70
2023/02/24 09:53:37;;;;;;;26.23;16.67;;;;;;;;;;5110787;27;20046;-70
2023/02/24 09:56:05;;;;;;;16.45;11.00;;;;;;;;;;5114826;27;20122;-70
2023/02/24 09:58:46;;;;;;;21.38;14.25;;;;;;;;;;5113192;27;20104;-71
2023/02/24 10:01:29;;;;;;;10.15;8.75;;;;;;;;;;5114515;27;20031;-71
2023/02/24 10:04:04;;;;;;;18.20;10.90;;;;;;;;;;5115030;27;20077;-71
2023/02/24 10:06:35;;;;;;;25.65;13.93;;;;;;;;;;5107635;27;20072;-70
2023/02/24 10:09:10;;;;;;;15.13;10.30;;;;;;;;;;5100667;27;20047;-70
2023/02/24 10:11:52;;;;;;;10.32;8.93;;;;;;;;;;5113831;27;20510;-71
2023/02/24 10:14:24;;;;;;;22.38;12.45;;;;;;;;;;5109157;27;20039;-70
2023/02/24 10:17:21;;;;;;;25.17;16.35;;;;;;;;;;5089385;28;20031;-70
2023/02/24 10:19:36;;;;;;;17.70;10.93;;;;;;;;;;5126264;27;20040;-70
2023/02/24 10:22:03;;;;;;;16.80;10.45;;;;;;;;;;5118982;27;20035;-71
2023/02/24 10:24:46;;;;;;;24.23;13.75;;;;;;;;;;5124200;27;20035;-71
2023/02/24 10:27:15;;;;;;;18.42;11.70;;;;;;;;;;5106910;27;20507;-71
2023/02/24 10:30:09;;;;;;;21.83;13.02;;;;;;;;;;5118915;27;20027;-71
2023/02/24 10:32:40;;;;;;;24.02;13.73;;;;;;;;;;5115760;27;20053;-70
2023/02/24 10:35:15;;;;;;;22.30;13.43;;;;;;;;;;5116379;27;20147;-71
2023/02/24 10:37:41;;;;;;;7.82;7.13;;;;;;;;;;5117583;27;20130;-72
2023/02/24 10:40:11;;;;;;;23.35;15.40;;;;;;;;;;5116952;27;20080;-72
2023/02/24 10:42:47;;;;;;;26.10;16.73;;;;;;;;;;5100923;27;20039;-72
2023/02/24 10:45:22;;;;;;;24.65;13.63;;;;;;;;;;5097751;28;20100;-72
2023/02/24 10:47:55;;;;;;;21.00;12.43;;;;;;;;;;5092654;28;20040;-72
2023/02/24 10:50:25;;;;;;;19.52;13.75;;;;;;;;;;5089136;28;20039;-72
2023/02/24 10:58:14;;;;;;;13.77;8.73;;;;;;;;;;5113555;27;20148;-72
2023/02/24 11:01:11;;;;;;;22.40;14.07;;;;;;;;;;5092348;28;20057;-72
2023/02/24 11:04:00;;;;;;;11.07;8.77;;;;;;;;;;5110358;28;20057;-72
2023/02/24 11:06:41;;;;;;;17.25;10.90;;;;;;;;;;5109825;28;20043;-72
2023/02/24 11:17:32;;;;;;;27.83;17.92;;;;;;;;;;5095277;27;20068;-72
2023/02/24 11:19:58;;;;;;;20.45;14.80;;;;;;;;;;5094822;27;20122;-71
2023/02/24 11:22:32;;;;;;;23.90;13.45;;;;;;;;;;5115994;27;20118;-72
2023/02/24 11:25:08;;;;;;;13.48;9.73;;;;;;;;;;5117583;27;20097;-72
2023/02/24 11:27:34;;;;;;;18.58;12.40;;;;;;;;;;5109259;28;20134;-72
2023/02/24 11:30:05;;;;;;;26.77;13.95;;;;;;;;;;5123296;27;20117;-71
2023/02/24 11:32:49;;;;;;;22.15;15.32;;;;;;;;;;5109504;28;20093;-73
2023/02/24 11:35:26;;;;;;;14.82;9.82;;;;;;;;;;5109134;28;20036;-71
2023/02/24 11:38:06;;;;;;;24.65;15.52;;;;;;;;;;5086130;27;20180;-71
2023/02/24 11:40:39;;;;;;;22.00;14.77;;;;;;;;;;5123199;27;20044;-72
2023/02/24 11:43:13;;;;;;;23.25;16.63;;;;;;;;;;5091965;27;20511;-71
2023/02/24 11:45:50;;;;;;;20.05;13.85;;;;;;;;;;5097204;28;20043;-71
2023/02/24 11:48:19;;;;;;;16.45;10.65;;;;;;;;;;5122667;27;20051;-71
2023/02/24 11:50:55;;;;;;;13.40;9.43;;;;;;;;;;5091065;28;20038;-72
2023/02/24 11:53:26;;;;;;;19.35;13.52;;;;;;;;;;5110224;27;20035;-72
2023/02/24 11:55:55;;;;;;;10.93;8.82;;;;;;;;;;5129504;27;20027;-71
2023/02/24 11:58:34;;;;;;;10.60;8.80;;;;;;;;;;5110484;27;20507;-72
2023/02/24 12:01:15;;;;;;;10.52;9.55;;;;;;;;;;5114741;27;20050;-72
2023/02/24 12:03:41;;;;;;;17.45;12.70;;;;;;;;;;5109089;27;20039;-72
2023/02/24 12:06:22;;;;;;;13.52;10.88;;;;;;;;;;5125947;27;20061;-72
2023/02/24 12:08:51;;;;;;;10.38;7.45;;;;;;;;;;5111376;27;20075;-71
2023/02/24 12:11:37;;;;;;;22.30;17.58;;;;;;;;;;5097170;27;20049;-72
2023/02/24 12:14:22;;;;;;;13.32;9.82;;;;;;;;;;5074807;27;20039;-73
2023/02/24 12:16:52;;;;;;;10.85;9.57;;;;;;;;;;5108940;28;20069;-71
2023/02/24 12:19:30;;;;;;;14.45;10.70;;;;;;;;;;5108539;28;20038;-71
2023/02/24 12:22:04;;;;;;;10.73;7.05;;;;;;;;;;5090163;28;20039;-72
2023/02/24 12:24:30;;;;;;;9.30;8.25;;;;;;;;;;5098895;27;20031;-72
2023/02/24 12:27:08;;;;;;;15.75;11.55;;;;;;;;;;5113292;27;20051;-72
2023/02/24 12:29:47;;;;;;;15.25;9.90;;;;;;;;;;5097145;28;20039;-72
2023/02/24 12:32:20;;;;;;;18.70;10.63;;;;;;;;;;5090093;28;20094;-72
2023/02/24 12:34:50;;;;;;;18.88;12.60;;;;;;;;;;5111178;28;20729;-72
2023/02/24 12:37:26;;;;;;;18.85;10.93;;;;;;;;;;5096283;27;20031;-71
2023/02/24 12:39:55;;;;;;;12.55;8.70;;;;;;;;;;5113592;27;20578;-72
2023/02/24 12:42:33;;;;;;;12.30;9.57;;;;;;;;;;5108224;28;20081;-71
2023/02/24 12:45:32;;;;;;;18.27;14.13;;;;;;;;;;5109454;28;20036;-71
2023/02/24 12:48:09;;;;;;;18.27;13.90;;;;;;;;;;5057796;28;20070;-71
2023/02/24 12:50:36;;;;;;;18.60;13.50;;;;;;;;;;5118118;28;20038;-71
2023/02/24 12:53:29;;;;;;;22.15;14.75;;;;;;;;;;5107728;28;20027;-71
2023/02/24 12:56:01;;;;;;;16.60;11.73;;;;;;;;;;5062552;28;20043;-71
2023/02/24 12:58:27;;;;;;;16.88;10.73;;;;;;;;;;5117282;28;20055;-71
2023/02/24 13:01:05;;;;;;;18.52;12.20;;;;;;;;;;5120858;28;20398;-71
2023/02/24 13:03:30;;;;;;;14.32;9.80;;;;;;;;;;5103156;28;20492;-71
2023/02/24 13:06:15;;;;;;;18.40;12.82;;;;;;;;;;5108359;28;20043;-71
2023/02/24 13:08:53;;;;;;;12.68;11.18;;;;;;;;;;5118191;28;20070;-70
2023/02/24 13:11:22;;;;;;;9.52;5.15;;;;;;;;;;5091977;28;20629;-70
2023/02/24 13:13:51;;;;;;;12.82;7.78;;;;;;;;;;5089754;28;20028;-70
2023/02/24 13:16:33;;;;;;;19.85;14.77;;;;;;;;;;5113106;28;20106;-71
2023/02/24 13:19:23;;;;;;;11.57;8.65;;;;;;;;;;5114116;28;20133;-70
2023/02/24 13:22:04;;;;;;;25.98;13.57;;;;;;;;;;5106891;28;20050;-70
2023/02/24 13:24:30;;;;;;;19.85;11.13;;;;;;;;;;5107805;28;20031;-71
2023/02/24 13:27:07;;;;;;;10.75;9.10;;;;;;;;;;5093184;28;20069;-70
2023/02/24 13:29:45;;;;;;;20.65;7.72;;;;;;;;;;5079863;28;20035;-72
2023/02/24 13:32:24;;;;;;;20.52;12.23;;;;;;;;;;5094544;28;20086;-72
2023/02/24 13:34:52;;;;;;;15.63;8.25;;;;;;;;;;5099976;28;20142;-71
2023/02/24 13:37:25;;;;;;;10.38;8.13;;;;;;;;;;5110588;28;20031;-70
2023/02/24 13:39:51;;;;;;;14.68;10.38;;;;;;;;;;5107973;28;20043;-71
2023/02/24 13:42:23;;;;;;;17.58;10.95;;;;;;;;;;5121157;28;20035;-70
2023/02/24 13:44:52;;;;;;;15.32;9.48;;;;;;;;;;5116209;28;20027;-70
2023/02/24 13:47:31;;;;;;;16.02;10.52;;;;;;;;;;5097393;28;20567;-70
2023/02/24 13:50:06;;;;;;;15.95;10.85;;;;;;;;;;5111766;28;20027;-70
2023/02/24 13:52:38;;;;;;;10.43;7.80;;;;;;;;;;5125024;27;20576;-70
2023/02/24 13:55:13;;;;;;;12.98;9.38;;;;;;;;;;5111342;28;20047;-69
2023/02/24 13:57:44;;;;;;;15.95;10.27;;;;;;;;;;5106884;27;20144;-71
2023/02/24 14:00:20;;;;;;;10.52;9.07;;;;;;;;;;5119577;27;20029;-69
2023/02/24 14:02:46;;;;;;;13.55;10.25;;;;;;;;;;5122362;27;20038;-69
2023/02/24 14:05:16;;;;;;;15.90;9.63;;;;;;;;;;5117586;27;20035;-69
2023/02/24 14:07:42;;;;;;;19.13;11.88;;;;;;;;;;5112438;27;20047;-69
2023/02/24 14:10:17;;;;;;;14.80;10.50;;;;;;;;;;5119355;27;20035;-70
2023/02/24 14:12:44;;;;;;;15.05;12.00;;;;;;;;;;5093336;28;20396;-70
2023/02/24 14:15:22;;;;;;;14.55;9.63;;;;;;;;;;5075954;28;20081;-70
2023/02/24 14:17:58;;;;;;;11.68;9.70;;;;;;;;;;5120140;27;20043;-70
2023/02/24 14:20:25;;;;;;;19.20;11.82;;;;;;;;;;5131222;27;20075;-70
2023/02/24 14:22:52;;;;;;;16.38;12.45;;;;;;;;;;5124255;27;20059;-69
2023/02/24 14:25:18;;;;;;;19.08;12.85;;;;;;;;;;5096505;27;20524;-69
2023/02/24 14:27:45;;;;;;;18.42;11.32;;;;;;;;;;5120552;27;20039;-70
2023/02/24 14:30:29;;;;;;;20.17;11.82;;;;;;;;;;5090061;28;20036;-69
2023/02/24 14:32:55;;;;;;;17.27;14.13;;;;;;;;;;5111446;27;20054;-70
2023/02/24 14:35:33;;;;;;;26.95;15.63;;;;;;;;;;5124343;27;20388;-70
2023/02/24 14:37:59;;;;;;;16.92;12.80;;;;;;;;;;5113421;27;20031;-69
2023/02/24 14:40:25;;;;;;;19.80;11.05;;;;;;;;;;5119300;27;20031;-70
2023/02/24 14:42:53;;;;;;;19.17;12.65;;;;;;;;;;5110663;28;20032;-69
2023/02/24 14:45:20;;;;;;;17.20;12.82;;;;;;;;;;5110385;28;20038;-69
2023/02/24 14:47:46;;;;;;;20.05;13.13;;;;;;;;;;5114056;27;20039;-70
2023/02/24 14:50:16;;;;;;;19.50;11.32;;;;;;;;;;5100666;27;20053;-70
2023/02/24 14:52:55;;;;;;;15.65;12.05;;;;;;;;;;5119220;27;20489;-71
2023/02/24 14:55:22;;;;;;;18.73;13.80;;;;;;;;;;5114416;27;20040;-71
2023/02/24 14:57:48;;;;;;;11.50;9.93;;;;;;;;;;5092516;27;20027;-71
2023/02/24 15:00:22;;;;;;;18.95;12.45;;;;;;;;;;5115989;27;20043;-70
2023/02/24 15:03:10;;;;;;;20.92;13.35;;;;;;;;;;5110329;28;20040;-70
2023/02/24 15:05:43;;;;;;;21.13;12.75;;;;;;;;;;5091697;28;20038;-70
2023/02/24 15:08:30;;;;;;;25.70;17.75;;;;;;;;;;5110040;28;20093;-71
2023/02/24 15:10:56;;;;;;;33.63;18.55;;;;;;;;;;5115827;27;20034;-73
2023/02/24 15:13:38;;;;;;;26.63;16.35;;;;;;;;;;5123762;27;20039;-70
2023/02/24 15:16:08;;;;;;;22.95;14.75;;;;;;;;;;5115185;27;20028;-71